sensor_id;sensor_type;location;lat;lon;timestamp;pressure;altitude;pressure_sealevel;temperature;humidity
42887;BME280;29032;56.028;92.904;2023-01-31T00:02:09;101029.41;;;-9.23;43.77
42887;BME280;29032;56.028;92.904;2023-01-31T00:07:11;101047.25;;;-9.15;43.92
42887;BME280;29032;56.028;92.904;2023-01-31T00:12:14;101039.13;;;-9.11;43.91
42887;BME280;29032;56.028;92.904;2023-01-31T00:17:17;101050.78;;;-9.04;43.61
42887;BME280;29032;56.028;92.904;2023-01-31T00:22:19;101049.25;;;-8.97;43.63
42887;BME280;29032;56.028;92.904;2023-01-31T00:27:21;101043.09;;;-8.94;43.63
42887;BME280;29032;56.028;92.904;2023-01-31T00:32:25;101052.00;;;-8.90;43.30
42887;BME280;29032;56.028;92.904;2023-01-31T00:37:27;101058.16;;;-9.00;42.46
42887;BME280;29032;56.028;92.904;2023-01-31T00:42:29;101040.53;;;-9.39;43.46
42887;BME280;29032;56.028;92.904;2023-01-31T00:47:33;101044.25;;;-9.68;43.66
42887;BME280;29032;56.028;92.904;2023-01-31T00:52:35;101040.31;;;-9.78;44.16
42887;BME280;29032;56.028;92.904;2023-01-31T00:57:37;101050.41;;;-9.75;43.65
42887;BME280;29032;56.028;92.904;2023-01-31T01:02:41;101065.81;;;-9.86;44.67
42887;BME280;29032;56.028;92.904;2023-01-31T01:07:43;101062.59;;;-9.99;45.35
42887;BME280;29032;56.028;92.904;2023-01-31T01:12:45;101060.06;;;-9.77;44.83
42887;BME280;29032;56.028;92.904;2023-01-31T01:17:50;101065.91;;;-9.72;44.08
42887;BME280;29032;56.028;92.904;2023-01-31T01:22:54;101059.66;;;-9.79;44.63
42887;BME280;29032;56.028;92.904;2023-01-31T01:27:58;101061.13;;;-9.93;44.69
42887;BME280;29032;56.028;92.904;2023-01-31T01:33:01;101070.38;;;-9.94;45.02
42887;BME280;29032;56.028;92.904;2023-01-31T01:38:03;101074.66;;;-9.89;44.91
42887;BME280;29032;56.028;92.904;2023-01-31T01:43:09;101055.00;;;-9.82;44.97
42887;BME280;29032;56.028;92.904;2023-01-31T01:48:15;101064.81;;;-9.64;44.75
42887;BME280;29032;56.028;92.904;2023-01-31T01:53:20;101062.88;;;-9.60;44.52
42887;BME280;29032;56.028;92.904;2023-01-31T01:58:27;101058.56;;;-9.68;45.09
42887;BME280;29032;56.028;92.904;2023-01-31T02:03:33;101062.13;;;-9.56;44.42
42887;BME280;29032;56.028;92.904;2023-01-31T02:08:38;101065.97;;;-9.61;45.08
42887;BME280;29032;56.028;92.904;2023-01-31T02:13:42;101063.69;;;-9.55;44.64
42887;BME280;29032;56.028;92.904;2023-01-31T02:18:50;101062.22;;;-9.42;45.03
42887;BME280;29032;56.028;92.904;2023-01-31T02:24:12;101061.53;;;-9.25;43.88
42887;BME280;29032;56.028;92.904;2023-01-31T02:29:38;101057.72;;;-9.17;44.52
42887;BME280;29032;56.028;92.904;2023-01-31T02:34:52;101046.13;;;-9.07;43.85
42887;BME280;29032;56.028;92.904;2023-01-31T02:40:03;101057.84;;;-8.81;43.60
42887;BME280;29032;56.028;92.904;2023-01-31T02:45:15;101050.88;;;-8.68;43.50
42887;BME280;29032;56.028;92.904;2023-01-31T02:50:25;101043.19;;;-8.59;43.45
42887;BME280;29032;56.028;92.904;2023-01-31T02:55:31;101049.41;;;-8.51;42.67
42887;BME280;29032;56.028;92.904;2023-01-31T03:00:35;101057.19;;;-8.28;43.08
42887;BME280;29032;56.028;92.904;2023-01-31T03:05:40;101050.97;;;-8.32;43.06
42887;BME280;29032;56.028;92.904;2023-01-31T03:10:54;101050.22;;;-8.22;42.71
42887;BME280;29032;56.028;92.904;2023-01-31T03:16:08;101039.34;;;-8.22;42.69
42887;BME280;29032;56.028;92.904;2023-01-31T03:21:19;101038.56;;;-8.30;42.87
42887;BME280;29032;56.028;92.904;2023-01-31T03:26:25;101035.47;;;-8.28;42.95
42887;BME280;29032;56.028;92.904;2023-01-31T03:31:30;101019.97;;;-8.24;42.65
42887;BME280;29032;56.028;92.904;2023-01-31T03:36:40;101033.88;;;-8.54;42.79
42887;BME280;29032;56.028;92.904;2023-01-31T03:42:05;101025.34;;;-8.60;43.45
42887;BME280;29032;56.028;92.904;2023-01-31T03:47:13;101016.06;;;-8.41;43.13
42887;BME280;29032;56.028;92.904;2023-01-31T03:52:23;101009.09;;;-8.17;42.88
42887;BME280;29032;56.028;92.904;2023-01-31T03:57:30;101014.13;;;-8.01;42.63
42887;BME280;29032;56.028;92.904;2023-01-31T04:02:35;101016.81;;;-7.90;42.25
42887;BME280;29032;56.028;92.904;2023-01-31T04:07:40;101018.38;;;-7.79;42.48
42887;BME280;29032;56.028;92.904;2023-01-31T04:12:44;101023.78;;;-7.72;42.17
42887;BME280;29032;56.028;92.904;2023-01-31T04:17:46;101021.47;;;-7.66;42.19
42887;BME280;29032;56.028;92.904;2023-01-31T04:22:50;101020.66;;;-7.56;42.81
42887;BME280;29032;56.028;92.904;2023-01-31T04:27:52;101016.00;;;-7.52;42.19
42887;BME280;29032;56.028;92.904;2023-01-31T04:32:54;101012.06;;;-7.44;42.03
42887;BME280;29032;56.028;92.904;2023-01-31T04:37:58;101003.50;;;-7.35;41.73
42887;BME280;29032;56.028;92.904;2023-01-31T04:43:00;101001.19;;;-7.33;41.88
42887;BME280;29032;56.028;92.904;2023-01-31T04:48:02;101004.66;;;-7.32;41.89
42887;BME280;29032;56.028;92.904;2023-01-31T04:53:06;101010.09;;;-7.25;42.04
42887;BME280;29032;56.028;92.904;2023-01-31T04:58:08;101009.69;;;-7.27;42.07
42887;BME280;29032;56.028;92.904;2023-01-31T05:03:10;101005.81;;;-7.26;42.07
42887;BME280;29032;56.028;92.904;2023-01-31T05:08:14;100998.00;;;-7.21;41.71
42887;BME280;29032;56.028;92.904;2023-01-31T05:13:16;100999.19;;;-7.18;41.88
42887;BME280;29032;56.028;92.904;2023-01-31T05:18:18;100994.88;;;-7.12;42.03
42887;BME280;29032;56.028;92.904;2023-01-31T05:23:21;101011.94;;;-7.04;41.90
42887;BME280;29032;56.028;92.904;2023-01-31T05:28:24;101004.91;;;-7.02;41.91
42887;BME280;29032;56.028;92.904;2023-01-31T05:33:26;101003.72;;;-6.94;41.73
42887;BME280;29032;56.028;92.904;2023-01-31T05:38:30;100992.38;;;-6.81;41.29
42887;BME280;29032;56.028;92.904;2023-01-31T05:43:32;100992.34;;;-6.74;41.44
42887;BME280;29032;56.028;92.904;2023-01-31T05:48:34;100997.72;;;-6.67;41.45
42887;BME280;29032;56.028;92.904;2023-01-31T05:53:37;100999.59;;;-6.57;41.60
42887;BME280;29032;56.028;92.904;2023-01-31T05:58:40;100985.94;;;-6.50;41.28
42887;BME280;29032;56.028;92.904;2023-01-31T06:03:42;100992.13;;;-6.42;40.98
42887;BME280;29032;56.028;92.904;2023-01-31T06:08:46;100985.03;;;-6.33;40.87
42887;BME280;29032;56.028;92.904;2023-01-31T06:13:48;100978.00;;;-6.30;40.87
42887;BME280;29032;56.028;92.904;2023-01-31T06:18:50;100979.47;;;-6.18;40.85
42887;BME280;29032;56.028;92.904;2023-01-31T06:23:54;100970.81;;;-6.06;40.53
42887;BME280;29032;56.028;92.904;2023-01-31T06:28:56;100969.25;;;-6.07;40.49
42887;BME280;29032;56.028;92.904;2023-01-31T06:33:58;100956.31;;;-6.41;40.49
42887;BME280;29032;56.028;92.904;2023-01-31T06:39:02;100958.81;;;-6.64;41.15
42887;BME280;29032;56.028;92.904;2023-01-31T06:44:04;100956.69;;;-6.91;41.90
42887;BME280;29032;56.028;92.904;2023-01-31T06:49:06;100957.78;;;-6.77;41.82
42887;BME280;29032;56.028;92.904;2023-01-31T06:54:10;100955.59;;;-6.48;41.09
42887;BME280;29032;56.028;92.904;2023-01-31T06:59:12;100943.78;;;-6.28;40.31
42887;BME280;29032;56.028;92.904;2023-01-31T07:04:14;100939.88;;;-6.26;41.01
42887;BME280;29032;56.028;92.904;2023-01-31T07:09:18;100951.47;;;-6.22;40.34
42887;BME280;29032;56.028;92.904;2023-01-31T07:14:20;100946.88;;;-6.29;40.38
42887;BME280;29032;56.028;92.904;2023-01-31T07:19:22;100937.19;;;-6.34;40.40
42887;BME280;29032;56.028;92.904;2023-01-31T07:24:26;100934.28;;;-6.12;40.63
42887;BME280;29032;56.028;92.904;2023-01-31T07:29:28;100924.09;;;-6.08;39.98
42887;BME280;29032;56.028;92.904;2023-01-31T07:34:30;100926.19;;;-6.19;40.40
42887;BME280;29032;56.028;92.904;2023-01-31T07:39:33;100928.69;;;-5.98;40.83
42887;BME280;29032;56.028;92.904;2023-01-31T07:44:36;100933.91;;;-5.77;40.29
42887;BME280;29032;56.028;92.904;2023-01-31T07:49:38;100930.75;;;-5.71;39.90
42887;BME280;29032;56.028;92.904;2023-01-31T07:54:41;100927.94;;;-5.64;39.67
42887;BME280;29032;56.028;92.904;2023-01-31T07:59:44;100929.66;;;-5.78;39.58
42887;BME280;29032;56.028;92.904;2023-01-31T08:04:46;100914.22;;;-5.91;40.14
42887;BME280;29032;56.028;92.904;2023-01-31T08:09:49;100916.09;;;-5.85;40.27
42887;BME280;29032;56.028;92.904;2023-01-31T08:14:52;100922.16;;;-5.70;40.18
42887;BME280;29032;56.028;92.904;2023-01-31T08:19:54;100928.06;;;-5.75;40.13
42887;BME280;29032;56.028;92.904;2023-01-31T08:24:57;100924.50;;;-5.72;40.41
42887;BME280;29032;56.028;92.904;2023-01-31T08:29:59;100923.97;;;-5.60;39.96
42887;BME280;29032;56.028;92.904;2023-01-31T08:35:02;100930.41;;;-5.43;39.79
42887;BME280;29032;56.028;92.904;2023-01-31T08:40:07;100927.94;;;-5.34;40.15
42887;BME280;29032;56.028;92.904;2023-01-31T08:45:10;100933.34;;;-5.30;39.43
42887;BME280;29032;56.028;92.904;2023-01-31T08:50:12;100925.22;;;-5.34;40.13
42887;BME280;29032;56.028;92.904;2023-01-31T08:55:15;100929.81;;;-5.27;39.65
42887;BME280;29032;56.028;92.904;2023-01-31T09:00:19;100926.84;;;-5.40;40.09
42887;BME280;29032;56.028;92.904;2023-01-31T09:05:22;100928.13;;;-5.48;40.18
42887;BME280;29032;56.028;92.904;2023-01-31T09:10:49;100930.44;;;-5.47;40.25
42887;BME280;29032;56.028;92.904;2023-01-31T09:15:57;100931.13;;;-5.39;40.25
42887;BME280;29032;56.028;92.904;2023-01-31T09:21:03;100915.91;;;-5.36;40.17
42887;BME280;29032;56.028;92.904;2023-01-31T09:26:07;100924.03;;;-5.33;40.04
42887;BME280;29032;56.028;92.904;2023-01-31T09:31:10;100924.38;;;-5.31;40.43
42887;BME280;29032;56.028;92.904;2023-01-31T09:36:16;100922.41;;;-5.27;39.85
42887;BME280;29032;56.028;92.904;2023-01-31T09:41:24;100922.41;;;-5.27;40.41
42887;BME280;29032;56.028;92.904;2023-01-31T09:46:31;100925.47;;;-5.25;40.45
42887;BME280;29032;56.028;92.904;2023-01-31T09:51:34;100923.94;;;-5.26;40.32
42887;BME280;29032;56.028;92.904;2023-01-31T09:56:44;100921.56;;;-5.24;40.42
42887;BME280;29032;56.028;92.904;2023-01-31T10:01:56;100913.38;;;-5.24;40.15
42887;BME280;29032;56.028;92.904;2023-01-31T10:07:04;100909.22;;;-5.32;39.60
42887;BME280;29032;56.028;92.904;2023-01-31T10:12:13;100896.66;;;-5.26;39.83
42887;BME280;29032;56.028;92.904;2023-01-31T10:17:20;100897.88;;;-5.30;39.99
42887;BME280;29032;56.028;92.904;2023-01-31T10:22:30;100895.94;;;-5.30;39.98
42887;BME280;29032;56.028;92.904;2023-01-31T10:27:42;100882.03;;;-5.39;40.14
42887;BME280;29032;56.028;92.904;2023-01-31T10:32:51;100901.47;;;-5.37;40.08
42887;BME280;29032;56.028;92.904;2023-01-31T10:38:00;100898.84;;;-5.44;40.52
42887;BME280;29032;56.028;92.904;2023-01-31T10:43:13;100903.94;;;-5.46;40.77
42887;BME280;29032;56.028;92.904;2023-01-31T10:48:18;100901.75;;;-5.58;40.63
42887;BME280;29032;56.028;92.904;2023-01-31T10:53:38;100896.53;;;-5.76;40.87
42887;BME280;29032;56.028;92.904;2023-01-31T10:58:44;100896.78;;;-6.01;41.36
42887;BME280;29032;56.028;92.904;2023-01-31T11:03:50;100907.44;;;-6.14;41.52
42887;BME280;29032;56.028;92.904;2023-01-31T11:08:55;100901.69;;;-6.23;41.62
42887;BME280;29032;56.028;92.904;2023-01-31T11:14:01;100897.47;;;-6.28;42.06
42887;BME280;29032;56.028;92.904;2023-01-31T11:19:16;100897.00;;;-6.19;41.26
42887;BME280;29032;56.028;92.904;2023-01-31T11:24:21;100890.84;;;-6.26;41.43
42887;BME280;29032;56.028;92.904;2023-01-31T11:29:27;100896.22;;;-6.19;41.41
42887;BME280;29032;56.028;92.904;2023-01-31T11:34:30;100907.31;;;-6.41;41.70
42887;BME280;29032;56.028;92.904;2023-01-31T11:39:34;100904.81;;;-6.69;41.94
42887;BME280;29032;56.028;92.904;2023-01-31T11:44:53;100910.69;;;-6.74;41.90
42887;BME280;29032;56.028;92.904;2023-01-31T11:49:55;100920.19;;;-6.97;42.31
42887;BME280;29032;56.028;92.904;2023-01-31T11:54:59;100917.09;;;-7.06;42.70
42887;BME280;29032;56.028;92.904;2023-01-31T12:00:07;100910.94;;;-7.14;42.72
42887;BME280;29032;56.028;92.904;2023-01-31T12:05:19;100910.66;;;-7.30;43.04
42887;BME280;29032;56.028;92.904;2023-01-31T12:10:32;100901.72;;;-7.27;43.01
42887;BME280;29032;56.028;92.904;2023-01-31T12:15:44;100905.63;;;-7.35;43.26
42887;BME280;29032;56.028;92.904;2023-01-31T12:20:52;100900.94;;;-7.31;43.34
42887;BME280;29032;56.028;92.904;2023-01-31T12:26:08;100898.50;;;-7.11;42.86
42887;BME280;29032;56.028;92.904;2023-01-31T12:31:29;100892.22;;;-6.97;42.49
42887;BME280;29032;56.028;92.904;2023-01-31T12:36:46;100887.63;;;-7.11;42.54
42887;BME280;29032;56.028;92.904;2023-01-31T12:42:00;100890.84;;;-7.30;42.96
42887;BME280;29032;56.028;92.904;2023-01-31T12:47:19;100883.81;;;-7.24;42.73
42887;BME280;29032;56.028;92.904;2023-01-31T12:52:35;100897.00;;;-7.23;42.54
42887;BME280;29032;56.028;92.904;2023-01-31T12:57:42;100895.06;;;-7.22;42.93
42887;BME280;29032;56.028;92.904;2023-01-31T13:03:02;100884.47;;;-7.02;42.65
42887;BME280;29032;56.028;92.904;2023-01-31T13:08:14;100897.28;;;-7.03;42.49
42887;BME280;29032;56.028;92.904;2023-01-31T13:13:22;100889.19;;;-7.14;42.93
42887;BME280;29032;56.028;92.904;2023-01-31T13:18:28;100892.72;;;-7.20;42.78
42887;BME280;29032;56.028;92.904;2023-01-31T13:23:35;100882.97;;;-7.14;43.09
42887;BME280;29032;56.028;92.904;2023-01-31T13:28:43;100869.78;;;-7.12;42.69
42887;BME280;29032;56.028;92.904;2023-01-31T13:33:53;100867.41;;;-7.10;42.75
42887;BME280;29032;56.028;92.904;2023-01-31T13:39:01;100869.09;;;-7.27;42.99
42887;BME280;29032;56.028;92.904;2023-01-31T13:44:12;100858.31;;;-7.45;43.14
42887;BME280;29032;56.028;92.904;2023-01-31T13:49:16;100866.88;;;-7.50;42.58
42887;BME280;29032;56.028;92.904;2023-01-31T13:54:24;100864.63;;;-7.66;42.39
42887;BME280;29032;56.028;92.904;2023-01-31T13:59:30;100861.63;;;-7.93;43.77
42887;BME280;29032;56.028;92.904;2023-01-31T14:04:35;100849.59;;;-7.91;44.12
42887;BME280;29032;56.028;92.904;2023-01-31T14:09:38;100849.22;;;-7.94;44.44
42887;BME280;29032;56.028;92.904;2023-01-31T14:14:44;100849.66;;;-8.13;44.55
42887;BME280;29032;56.028;92.904;2023-01-31T14:20:03;100844.94;;;-7.98;43.85
42887;BME280;29032;56.028;92.904;2023-01-31T14:25:12;100836.81;;;-8.02;44.29
42887;BME280;29032;56.028;92.904;2023-01-31T14:30:36;100836.88;;;-8.16;43.65
42887;BME280;29032;56.028;92.904;2023-01-31T14:41:23;100832.13;;;-7.94;44.02
42887;BME280;29032;56.028;92.904;2023-01-31T14:46:40;100825.13;;;-7.88;43.29
42887;BME280;29032;56.028;92.904;2023-01-31T14:51:59;100819.75;;;-8.06;43.45
42887;BME280;29032;56.028;92.904;2023-01-31T14:57:18;100822.16;;;-8.29;44.04
42887;BME280;29032;56.028;92.904;2023-01-31T15:02:44;100808.25;;;-8.49;44.18
42887;BME280;29032;56.028;92.904;2023-01-31T15:07:58;100808.25;;;-8.42;44.89
42887;BME280;29032;56.028;92.904;2023-01-31T15:13:01;100807.09;;;-8.52;45.34
42887;BME280;29032;56.028;92.904;2023-01-31T15:18:10;100803.59;;;-8.49;44.63
42887;BME280;29032;56.028;92.904;2023-01-31T15:23:17;100822.97;;;-8.32;44.30
42887;BME280;29032;56.028;92.904;2023-01-31T15:28:25;100813.59;;;-8.13;44.17
42887;BME280;29032;56.028;92.904;2023-01-31T15:33:31;100813.19;;;-8.12;43.92
42887;BME280;29032;56.028;92.904;2023-01-31T15:38:42;100803.50;;;-8.09;43.81
42887;BME280;29032;56.028;92.904;2023-01-31T15:43:46;100802.38;;;-8.26;43.55
42887;BME280;29032;56.028;92.904;2023-01-31T15:48:49;100822.16;;;-8.29;43.67
42887;BME280;29032;56.028;92.904;2023-01-31T15:54:00;100822.16;;;-8.22;43.19
42887;BME280;29032;56.028;92.904;2023-01-31T15:59:10;100813.66;;;-8.38;43.55
42887;BME280;29032;56.028;92.904;2023-01-31T16:04:13;100818.38;;;-8.64;43.82
42887;BME280;29032;56.028;92.904;2023-01-31T16:09:23;100826.13;;;-8.59;43.75
42887;BME280;29032;56.028;92.904;2023-01-31T16:14:27;100823.41;;;-8.62;45.18
42887;BME280;29032;56.028;92.904;2023-01-31T16:19:32;100822.22;;;-8.43;45.10
42887;BME280;29032;56.028;92.904;2023-01-31T16:24:34;100822.94;;;-8.18;45.07
42887;BME280;29032;56.028;92.904;2023-01-31T16:29:40;100817.78;;;-7.95;44.52
42887;BME280;29032;56.028;92.904;2023-01-31T16:34:43;100812.31;;;-7.87;44.54
42887;BME280;29032;56.028;92.904;2023-01-31T16:39:47;100800.28;;;-7.86;44.23
42887;BME280;29032;56.028;92.904;2023-01-31T16:44:51;100815.78;;;-7.80;44.24
42887;BME280;29032;56.028;92.904;2023-01-31T16:50:24;100811.09;;;-7.72;44.14
42887;BME280;29032;56.028;92.904;2023-01-31T16:55:28;100819.63;;;-7.77;44.25
42887;BME280;29032;56.028;92.904;2023-01-31T17:00:35;100809.50;;;-7.66;44.18
42887;BME280;29032;56.028;92.904;2023-01-31T17:05:39;100811.41;;;-7.63;44.30
42887;BME280;29032;56.028;92.904;2023-01-31T17:10:42;100807.97;;;-7.67;44.21
42887;BME280;29032;56.028;92.904;2023-01-31T17:15:46;100814.94;;;-7.66;44.26
42887;BME280;29032;56.028;92.904;2023-01-31T17:20:48;100809.97;;;-7.85;44.15
42887;BME280;29032;56.028;92.904;2023-01-31T17:25:50;100804.59;;;-8.00;44.55
42887;BME280;29032;56.028;92.904;2023-01-31T17:30:54;100807.75;;;-8.08;44.55
42887;BME280;29032;56.028;92.904;2023-01-31T17:35:56;100802.78;;;-8.35;44.93
42887;BME280;29032;56.028;92.904;2023-01-31T17:40:58;100798.19;;;-8.63;45.25
42887;BME280;29032;56.028;92.904;2023-01-31T17:46:02;100794.72;;;-8.60;45.53
42887;BME280;29032;56.028;92.904;2023-01-31T17:51:05;100796.28;;;-8.59;45.22
42887;BME280;29032;56.028;92.904;2023-01-31T17:56:07;100780.38;;;-8.60;45.30
42887;BME280;29032;56.028;92.904;2023-01-31T18:01:11;100792.38;;;-8.51;44.82
42887;BME280;29032;56.028;92.904;2023-01-31T18:06:13;100779.97;;;-8.52;44.55
42887;BME280;29032;56.028;92.904;2023-01-31T18:11:15;100788.13;;;-8.52;44.40
42887;BME280;29032;56.028;92.904;2023-01-31T18:16:19;100788.09;;;-8.55;44.73
42887;BME280;29032;56.028;92.904;2023-01-31T18:21:22;100795.09;;;-8.61;44.31
42887;BME280;29032;56.028;92.904;2023-01-31T18:26:25;100797.03;;;-8.69;44.08
42887;BME280;29032;56.028;92.904;2023-01-31T18:31:28;100790.47;;;-8.75;44.16
42887;BME280;29032;56.028;92.904;2023-01-31T18:36:30;100787.41;;;-8.81;44.12
42887;BME280;29032;56.028;92.904;2023-01-31T18:41:33;100772.69;;;-9.05;44.49
42887;BME280;29032;56.028;92.904;2023-01-31T18:46:36;100791.25;;;-9.10;44.22
42887;BME280;29032;56.028;92.904;2023-01-31T18:51:38;100785.84;;;-9.17;44.41
42887;BME280;29032;56.028;92.904;2023-01-31T18:56:40;100789.72;;;-9.22;44.34
42887;BME280;29032;56.028;92.904;2023-01-31T19:01:44;100785.84;;;-9.17;44.06
42887;BME280;29032;56.028;92.904;2023-01-31T19:06:46;100792.84;;;-9.16;44.02
42887;BME280;29032;56.028;92.904;2023-01-31T19:11:48;100795.16;;;-9.15;43.20
42887;BME280;29032;56.028;92.904;2023-01-31T19:16:52;100788.56;;;-9.21;43.92
42887;BME280;29032;56.028;92.904;2023-01-31T19:21:54;100795.13;;;-9.33;43.80
42887;BME280;29032;56.028;92.904;2023-01-31T19:26:56;100783.50;;;-9.47;43.67
42887;BME280;29032;56.028;92.904;2023-01-31T19:32:00;100779.22;;;-9.55;43.44
42887;BME280;29032;56.028;92.904;2023-01-31T19:37:02;100783.47;;;-9.62;43.61
42887;BME280;29032;56.028;92.904;2023-01-31T19:42:04;100767.97;;;-9.68;43.14
42887;BME280;29032;56.028;92.904;2023-01-31T19:47:08;100769.50;;;-9.74;43.98
42887;BME280;29032;56.028;92.904;2023-01-31T19:52:10;100773.41;;;-9.79;44.23
42887;BME280;29032;56.028;92.904;2023-01-31T19:57:12;100780.34;;;-9.74;43.81
42887;BME280;29032;56.028;92.904;2023-01-31T20:02:16;100777.25;;;-9.76;43.90
42887;BME280;29032;56.028;92.904;2023-01-31T20:07:18;100771.81;;;-9.87;43.82
42887;BME280;29032;56.028;92.904;2023-01-31T20:12:20;100782.25;;;-9.82;44.22
42887;BME280;29032;56.028;92.904;2023-01-31T20:17:24;100775.72;;;-9.67;44.13
42887;BME280;29032;56.028;92.904;2023-01-31T20:22:26;100779.63;;;-9.57;43.32
42887;BME280;29032;56.028;92.904;2023-01-31T20:27:28;100778.06;;;-9.54;43.28
42887;BME280;29032;56.028;92.904;2023-01-31T20:32:32;100783.50;;;-9.54;43.35
42887;BME280;29032;56.028;92.904;2023-01-31T20:37:34;100778.84;;;-9.57;43.76
42887;BME280;29032;56.028;92.904;2023-01-31T20:42:36;100785.44;;;-9.51;43.57
42887;BME280;29032;56.028;92.904;2023-01-31T20:47:40;100785.03;;;-9.46;43.13
42887;BME280;29032;56.028;92.904;2023-01-31T20:52:42;100778.47;;;-9.49;42.88
42887;BME280;29032;56.028;92.904;2023-01-31T20:57:44;100783.84;;;-9.67;43.56
42887;BME280;29032;56.028;92.904;2023-01-31T21:02:48;100776.09;;;-9.86;43.46
42887;BME280;29032;56.028;92.904;2023-01-31T21:07:50;100754.34;;;-10.15;43.43
42887;BME280;29032;56.028;92.904;2023-01-31T21:12:52;100773.72;;;-9.98;43.51
42887;BME280;29032;56.028;92.904;2023-01-31T21:17:56;100777.59;;;-9.99;43.59
42887;BME280;29032;56.028;92.904;2023-01-31T21:22:58;100775.97;;;-10.22;41.04
42887;BME280;29032;56.028;92.904;2023-01-31T21:28:00;100777.78;;;-11.02;41.94
42887;BME280;29032;56.028;92.904;2023-01-31T21:33:04;100777.16;;;-11.73;42.34
42887;BME280;29032;56.028;92.904;2023-01-31T21:38:06;100788.69;;;-12.14;43.13
42887;BME280;29032;56.028;92.904;2023-01-31T21:43:08;100792.59;;;-12.11;42.87
42887;BME280;29032;56.028;92.904;2023-01-31T21:48:12;100793.31;;;-12.14;43.06
42887;BME280;29032;56.028;92.904;2023-01-31T21:53:14;100797.91;;;-12.18;42.87
42887;BME280;29032;56.028;92.904;2023-01-31T21:58:16;100804.53;;;-12.12;42.85
42887;BME280;29032;56.028;92.904;2023-01-31T22:03:20;100803.47;;;-12.04;42.14
42887;BME280;29032;56.028;92.904;2023-01-31T22:08:22;100805.75;;;-12.06;42.78
42887;BME280;29032;56.028;92.904;2023-01-31T22:13:24;100798.06;;;-12.04;42.40
42887;BME280;29032;56.028;92.904;2023-01-31T22:18:28;100794.97;;;-12.06;41.88
42887;BME280;29032;56.028;92.904;2023-01-31T22:23:32;100801.94;;;-12.01;42.10
42887;BME280;29032;56.028;92.904;2023-01-31T22:28:35;100806.94;;;-12.03;42.18
42887;BME280;29032;56.028;92.904;2023-01-31T22:33:40;100798.16;;;-11.97;41.56
42887;BME280;29032;56.028;92.904;2023-01-31T22:38:43;100810.41;;;-12.03;41.58
42887;BME280;29032;56.028;92.904;2023-01-31T22:43:47;100797.84;;;-11.92;40.99
42887;BME280;29032;56.028;92.904;2023-01-31T22:48:52;100795.53;;;-11.86;40.64
42887;BME280;29032;56.028;92.904;2023-01-31T22:53:55;100794.84;;;-12.13;40.95
42887;BME280;29032;56.028;92.904;2023-01-31T22:58:59;100804.66;;;-12.31;41.08
42887;BME280;29032;56.028;92.904;2023-01-31T23:04:04;100809.13;;;-12.43;41.33
42887;BME280;29032;56.028;92.904;2023-01-31T23:09:07;100796.41;;;-12.42;41.65
42887;BME280;29032;56.028;92.904;2023-01-31T23:14:09;100800.72;;;-12.38;41.41
42887;BME280;29032;56.028;92.904;2023-01-31T23:19:13;100802.50;;;-12.49;41.36
42887;BME280;29032;56.028;92.904;2023-01-31T23:24:15;100800.06;;;-12.57;41.81
42887;BME280;29032;56.028;92.904;2023-01-31T23:29:17;100801.19;;;-12.62;41.84
42887;BME280;29032;56.028;92.904;2023-01-31T23:34:21;100801.69;;;-12.79;41.72
42887;BME280;29032;56.028;92.904;2023-01-31T23:39:23;100792.88;;;-13.03;41.84
42887;BME280;29032;56.028;92.904;2023-01-31T23:44:25;100792.09;;;-13.03;41.67
42887;BME280;29032;56.028;92.904;2023-01-31T23:49:29;100802.13;;;-13.00;41.66
42887;BME280;29032;56.028;92.904;2023-01-31T23:54:31;100801.06;;;-12.96;43.51
42887;BME280;29032;56.028;92.904;2023-01-31T23:59:33;100789.56;;;-12.66;44.01
